createdAt,value
2022-12-05T00:00:23.991Z,100.00
2022-12-05T00:03:08.065Z,100.00
2022-12-05T00:05:52.051Z,100.00
2022-12-05T00:08:35.943Z,100.00
2022-12-05T00:11:21.281Z,100.00
2022-12-05T00:14:06.691Z,100.00
2022-12-05T00:16:51.872Z,100.00
2022-12-05T00:19:36.122Z,100.00
2022-12-05T00:22:20.337Z,100.00
2022-12-05T00:25:04.737Z,100.00
2022-12-05T00:27:48.708Z,100.00
2022-12-05T00:30:32.971Z,100.00
2022-12-05T00:33:18.533Z,100.00
2022-12-05T00:36:04.354Z,100.00
2022-12-05T00:38:48.499Z,100.00
2022-12-05T00:41:32.653Z,100.00
2022-12-05T00:44:16.633Z,100.00
2022-12-05T00:47:00.601Z,100.00
2022-12-05T00:49:45.992Z,100.00
2022-12-05T00:52:29.994Z,100.00
2022-12-05T00:55:13.955Z,100.00
2022-12-05T00:57:58.009Z,100.00
2022-12-05T01:00:42.125Z,100.00
2022-12-05T01:03:26.328Z,100.00
2022-12-05T01:06:12.197Z,100.00
2022-12-05T01:08:57.299Z,100.00
2022-12-05T01:11:41.827Z,100.00
2022-12-05T01:14:27.304Z,100.00
2022-12-05T01:17:11.705Z,100.00
2022-12-05T01:19:56.240Z,100.00
2022-12-05T01:22:41.714Z,100.00
2022-12-05T01:25:47.891Z,100.00
2022-12-05T01:28:31.914Z,100.00
2022-12-05T01:31:22.497Z,100.00
2022-12-05T01:34:09.286Z,100.00
2022-12-05T01:36:53.308Z,100.00
2022-12-05T01:39:38.710Z,100.00
2022-12-05T01:42:26.203Z,100.00
2022-12-05T01:45:17.042Z,100.00
2022-12-05T01:48:03.798Z,100.00
2022-12-05T01:50:49.135Z,100.00
2022-12-05T01:53:33.098Z,100.00
2022-12-05T01:56:20.066Z,100.00
2022-12-05T01:59:07.470Z,100.00
2022-12-05T02:01:51.590Z,100.00
2022-12-05T02:04:40.050Z,100.00
2022-12-05T02:07:24.437Z,100.00
2022-12-05T02:10:09.821Z,100.00
2022-12-05T02:12:55.828Z,100.00
2022-12-05T02:15:44.974Z,100.00
2022-12-05T02:18:42.665Z,100.00
2022-12-05T02:21:51.439Z,100.00
2022-12-05T02:24:53.873Z,100.00
2022-12-05T02:28:12.443Z,100.00
2022-12-05T02:31:01.369Z,100.00
2022-12-05T02:33:50.037Z,100.00
2022-12-05T02:36:48.397Z,100.00
2022-12-05T02:39:42.756Z,100.00
2022-12-05T02:42:34.623Z,100.00
2022-12-05T02:45:25.275Z,100.00
2022-12-05T02:48:13.177Z,100.00
2022-12-05T02:51:00.364Z,100.00
2022-12-05T02:53:45.838Z,100.00
2022-12-05T02:56:34.363Z,100.00
2022-12-05T02:59:23.074Z,100.00
2022-12-05T03:02:09.838Z,100.00
2022-12-05T03:04:59.193Z,100.00
2022-12-05T03:07:46.470Z,100.00
2022-12-05T03:10:32.645Z,100.00
2022-12-05T03:13:21.967Z,100.00
2022-12-05T03:16:10.172Z,100.00
2022-12-05T03:18:59.527Z,100.00
2022-12-05T03:21:51.998Z,100.00
2022-12-05T03:24:39.023Z,100.00
2022-12-05T03:27:28.898Z,100.00
2022-12-05T03:30:15.943Z,100.00
2022-12-05T03:33:07.116Z,100.00
2022-12-05T03:36:00.099Z,100.00
2022-12-05T03:38:50.546Z,100.00
2022-12-05T03:41:39.890Z,100.00
2022-12-05T03:44:29.581Z,100.00
2022-12-05T03:47:18.976Z,100.00
2022-12-05T03:50:08.921Z,100.00
2022-12-05T03:53:19.228Z,100.00
2022-12-05T03:56:07.698Z,100.00
2022-12-05T03:58:58.238Z,100.00
2022-12-05T04:01:44.647Z,100.00
2022-12-05T04:04:32.981Z,100.00
2022-12-05T04:07:19.895Z,100.00
2022-12-05T04:10:08.245Z,100.00
2022-12-05T04:12:56.256Z,100.00
2022-12-05T04:15:54.034Z,100.00
2022-12-05T04:18:40.317Z,100.00
2022-12-05T04:21:40.699Z,100.00
2022-12-05T04:24:45.534Z,100.00
2022-12-05T04:27:38.049Z,100.00
2022-12-05T04:30:25.702Z,100.00
2022-12-05T04:33:15.516Z,100.00
2022-12-05T04:36:04.276Z,100.00
2022-12-05T04:38:52.729Z,100.00
2022-12-05T04:41:41.579Z,100.00
2022-12-05T04:44:28.518Z,100.00
2022-12-05T04:47:15.920Z,100.00
2022-12-05T04:50:01.626Z,100.00
2022-12-05T04:52:51.732Z,100.00
2022-12-05T04:55:38.584Z,100.00
2022-12-05T04:58:24.576Z,100.00
2022-12-05T05:01:15.762Z,100.00
2022-12-05T05:04:09.508Z,100.00
2022-12-05T05:06:53.516Z,100.00
2022-12-05T05:09:38.215Z,100.00
2022-12-05T05:12:22.112Z,100.00
2022-12-05T05:15:06.930Z,100.00
2022-12-05T05:17:50.794Z,100.00
2022-12-05T05:20:35.920Z,100.00
2022-12-05T05:23:19.686Z,100.00
2022-12-05T05:26:03.521Z,100.00
2022-12-05T05:28:47.783Z,100.00
2022-12-05T05:31:31.669Z,100.00
2022-12-05T05:34:16.664Z,100.00
2022-12-05T05:37:01.837Z,100.00
2022-12-05T05:39:45.806Z,100.00
2022-12-05T05:42:29.600Z,100.00
2022-12-05T05:45:14.384Z,100.00
2022-12-05T05:47:58.282Z,100.00
2022-12-05T05:50:42.024Z,100.00
2022-12-05T05:53:29.512Z,100.00
2022-12-05T05:56:20.069Z,100.00
2022-12-05T05:59:05.200Z,100.00
2022-12-05T06:01:48.990Z,100.00
2022-12-05T06:04:32.829Z,100.00
2022-12-05T06:07:16.723Z,100.00
2022-12-05T06:10:02.134Z,100.00
2022-12-05T06:12:46.987Z,100.00
2022-12-05T06:15:30.811Z,100.00
2022-12-05T06:18:14.641Z,100.00
2022-12-05T06:20:59.400Z,100.00
2022-12-05T06:23:43.173Z,100.00
2022-12-05T06:26:28.448Z,100.00
2022-12-05T06:29:13.000Z,100.00
2022-12-05T06:31:56.894Z,100.00
2022-12-05T06:34:41.166Z,100.00
2022-12-05T06:37:25.210Z,100.00
2022-12-05T06:40:10.469Z,100.00
2022-12-05T06:42:55.994Z,100.00
2022-12-05T06:45:40.911Z,100.00
2022-12-05T06:48:25.043Z,100.00
2022-12-05T06:51:12.091Z,100.00
2022-12-05T06:53:57.534Z,100.00
2022-12-05T06:56:41.875Z,100.00
2022-12-05T06:59:27.455Z,100.00
2022-12-05T07:02:12.695Z,100.00
2022-12-05T07:04:56.633Z,100.00
2022-12-05T07:07:40.695Z,100.00
2022-12-05T07:10:24.688Z,100.00
2022-12-05T07:13:10.101Z,100.00
2022-12-05T07:15:59.278Z,100.00
2022-12-05T07:18:43.460Z,100.00
2022-12-05T07:21:27.401Z,100.00
2022-12-05T07:24:11.542Z,100.00
2022-12-05T07:26:55.637Z,99.69
2022-12-05T07:29:39.624Z,100.00
2022-12-05T07:32:24.738Z,98.70
2022-12-05T07:35:09.206Z,99.74
2022-12-05T07:37:52.897Z,99.06
2022-12-05T07:40:38.655Z,99.15
2022-12-05T07:43:22.437Z,98.55
2022-12-05T07:46:07.534Z,98.43
2022-12-05T07:48:53.509Z,98.64
2022-12-05T07:51:37.409Z,98.83
2022-12-05T07:54:21.268Z,98.38
2022-12-05T07:57:05.245Z,97.80
2022-12-05T07:59:49.006Z,97.89
2022-12-05T08:02:33.879Z,98.16
2022-12-05T08:05:20.753Z,97.97
2022-12-05T08:08:04.746Z,97.43
2022-12-05T08:10:48.500Z,97.94
2022-12-05T08:13:32.279Z,97.41
2022-12-05T08:16:18.278Z,97.35
2022-12-05T08:19:04.668Z,96.69
2022-12-05T08:21:49.758Z,96.69
2022-12-05T08:24:33.626Z,96.04
2022-12-05T08:27:17.467Z,96.16
2022-12-05T08:30:01.189Z,95.81
2022-12-05T08:32:48.458Z,94.90
2022-12-05T08:35:32.251Z,95.62
2022-12-05T08:38:17.284Z,95.80
2022-12-05T08:41:02.224Z,95.93
2022-12-05T08:43:46.052Z,95.15
2022-12-05T08:46:29.945Z,94.92
2022-12-05T08:49:14.194Z,94.73
2022-12-05T08:51:57.949Z,94.71
2022-12-05T08:54:43.102Z,94.90
2022-12-05T08:57:26.877Z,94.26
2022-12-05T09:00:11.520Z,93.97
2022-12-05T09:02:55.466Z,93.69
2022-12-05T09:05:39.247Z,92.85
2022-12-05T09:08:23.052Z,94.17
2022-12-05T09:11:09.817Z,92.89
2022-12-05T09:13:55.147Z,92.72
2022-12-05T09:16:39.929Z,92.63
2022-12-05T09:19:25.015Z,92.53
2022-12-05T09:22:08.809Z,90.76
2022-12-05T09:24:52.908Z,90.11
2022-12-05T09:27:38.128Z,90.50
2022-12-05T09:30:22.061Z,90.89
2022-12-05T09:33:05.870Z,89.65
2022-12-05T09:35:49.530Z,89.88
2022-12-05T09:38:33.548Z,88.38
2022-12-05T09:41:57.523Z,89.27
2022-12-05T09:44:50.908Z,89.12
2022-12-05T09:47:44.115Z,89.42
2022-12-05T09:50:30.187Z,87.87
2022-12-05T09:53:25.565Z,87.46
2022-12-05T09:56:19.787Z,86.19
2022-12-05T09:59:03.542Z,87.62
2022-12-05T10:01:57.161Z,86.72
2022-12-05T10:05:00.110Z,85.52
2022-12-05T10:07:55.164Z,84.65
2022-12-05T10:10:49.895Z,83.91
2022-12-05T10:13:46.743Z,83.94
2022-12-05T10:16:34.285Z,83.63
2022-12-05T10:19:25.661Z,85.08
2022-12-05T10:22:20.274Z,84.87
2022-12-05T10:25:07.056Z,84.41
2022-12-05T10:27:53.402Z,85.23
2022-12-05T10:30:38.478Z,83.56
2022-12-05T10:33:24.216Z,83.58
2022-12-05T10:36:13.240Z,83.85
2022-12-05T10:38:57.959Z,84.12
2022-12-05T10:41:41.744Z,84.10
2022-12-05T10:44:25.497Z,84.10
2022-12-05T10:47:10.176Z,83.70
2022-12-05T10:49:55.569Z,83.77
2022-12-05T10:52:40.692Z,84.47
2022-12-05T10:55:28.846Z,84.76
2022-12-05T10:58:17.826Z,85.17
2022-12-05T11:01:10.063Z,84.31
2022-12-05T11:03:58.256Z,83.85
2022-12-05T11:06:51.926Z,83.69
2022-12-05T11:09:39.355Z,84.05
2022-12-05T11:12:25.551Z,84.81
2022-12-05T11:15:25.010Z,84.12
2022-12-05T11:18:20.492Z,84.43
2022-12-05T11:21:12.476Z,83.72
2022-12-05T11:23:56.432Z,84.55
2022-12-05T11:26:42.942Z,85.02
2022-12-05T11:29:37.178Z,85.35
2022-12-05T11:32:22.891Z,84.86
2022-12-05T11:35:19.694Z,85.46
2022-12-05T11:38:05.300Z,84.67
2022-12-05T11:40:55.108Z,84.85
2022-12-05T11:43:54.281Z,84.23
2022-12-05T11:46:49.837Z,83.81
2022-12-05T11:49:46.285Z,83.87
2022-12-05T11:52:41.009Z,82.95
2022-12-05T11:55:31.964Z,82.28
2022-12-05T11:58:46.520Z,82.84
2022-12-05T12:01:42.888Z,82.33
2022-12-05T12:04:42.120Z,82.11
2022-12-05T12:07:40.730Z,81.58
2022-12-05T12:10:34.212Z,82.23
2022-12-05T12:13:31.881Z,81.38
2022-12-05T12:16:23.519Z,81.09
2022-12-05T12:19:22.440Z,82.31
2022-12-05T12:22:23.271Z,81.35
2022-12-05T12:25:28.593Z,81.57
2022-12-05T12:28:29.519Z,81.91
2022-12-05T12:31:48.786Z,80.20
2022-12-05T12:34:54.417Z,82.58
2022-12-05T12:37:47.844Z,80.86
2022-12-05T12:40:41.674Z,80.83
2022-12-05T12:43:53.721Z,80.76
2022-12-05T12:46:51.225Z,81.04
2022-12-05T12:49:53.918Z,82.15
2022-12-05T12:52:54.986Z,83.47
2022-12-05T12:55:45.820Z,83.53
2022-12-05T12:58:45.634Z,83.26
2022-12-05T13:01:38.857Z,83.36
2022-12-05T13:04:29.895Z,83.87
2022-12-05T13:07:19.222Z,85.07
2022-12-05T13:10:12.838Z,84.79
2022-12-05T13:12:59.709Z,85.15
2022-12-05T13:15:48.023Z,84.46
2022-12-05T13:18:32.145Z,85.55
2022-12-05T13:21:18.610Z,85.38
2022-12-05T13:24:03.891Z,86.20
2022-12-05T13:26:51.146Z,85.87
2022-12-05T13:29:37.988Z,86.40
2022-12-05T13:32:33.673Z,85.08
2022-12-05T13:35:40.079Z,86.08
2022-12-05T13:38:47.637Z,87.09
2022-12-05T13:41:59.722Z,87.75
2022-12-05T13:44:46.667Z,87.25
2022-12-05T13:47:34.963Z,87.42
2022-12-05T13:50:24.076Z,86.97
2022-12-05T13:53:25.376Z,87.15
2022-12-05T13:56:29.261Z,86.95
2022-12-05T13:59:13.194Z,87.97
2022-12-05T14:01:57.222Z,87.83
2022-12-05T14:04:53.396Z,87.03
2022-12-05T14:07:43.667Z,86.77
2022-12-05T14:11:13.026Z,86.80
2022-12-05T14:14:03.992Z,86.74
2022-12-05T14:16:53.165Z,86.23
2022-12-05T14:20:01.568Z,86.93
2022-12-05T14:23:14.041Z,87.35
2022-12-05T14:26:20.154Z,85.34
2022-12-05T14:29:20.431Z,85.64
2022-12-05T14:32:14.382Z,85.04
2022-12-05T14:35:03.473Z,85.80
2022-12-05T14:37:54.829Z,85.36
2022-12-05T14:40:41.341Z,84.16
2022-12-05T14:43:32.985Z,82.49
2022-12-05T14:46:23.350Z,82.45
2022-12-05T14:49:53.047Z,81.31
2022-12-05T14:52:38.838Z,81.59
2022-12-05T14:55:26.903Z,80.31
2022-12-05T14:58:19.684Z,82.36
2022-12-05T15:01:09.259Z,82.98
2022-12-05T15:04:09.518Z,84.71
2022-12-05T15:06:57.330Z,84.71
2022-12-05T15:10:04.087Z,84.91
2022-12-05T15:12:51.033Z,86.43
2022-12-05T15:15:39.022Z,86.25
2022-12-05T15:18:29.748Z,84.76
2022-12-05T15:21:23.268Z,85.95
2022-12-05T15:24:13.828Z,85.66
2022-12-05T15:27:00.041Z,84.15
2022-12-05T15:29:44.734Z,85.66
2022-12-05T15:32:29.587Z,87.43
2022-12-05T15:35:17.547Z,86.85
2022-12-05T15:38:09.456Z,87.74
2022-12-05T15:40:53.354Z,86.63
2022-12-05T15:43:37.814Z,86.33
2022-12-05T15:46:24.526Z,85.10
2022-12-05T15:49:18.480Z,87.38
2022-12-05T15:52:25.788Z,86.54
2022-12-05T15:55:15.261Z,86.42
2022-12-05T15:58:09.656Z,84.89
2022-12-05T16:01:02.607Z,84.93
2022-12-05T16:03:52.452Z,85.56
2022-12-05T16:06:40.503Z,86.69
2022-12-05T16:09:29.850Z,86.43
2022-12-05T16:12:28.369Z,86.99
2022-12-05T16:15:16.298Z,88.01
2022-12-05T16:18:02.133Z,87.54
2022-12-05T16:20:47.181Z,86.52
2022-12-05T16:23:33.278Z,86.55
2022-12-05T16:26:22.978Z,88.49
2022-12-05T16:29:07.014Z,86.70
2022-12-05T16:31:56.587Z,87.40
2022-12-05T16:34:40.437Z,86.13
2022-12-05T16:37:27.495Z,87.39
2022-12-05T16:40:22.445Z,87.74
2022-12-05T16:43:18.412Z,87.26
2022-12-05T16:46:43.101Z,88.63
2022-12-05T16:49:34.972Z,88.77
2022-12-05T16:52:18.843Z,88.63
2022-12-05T16:55:02.688Z,88.84
2022-12-05T16:57:47.392Z,89.36
2022-12-05T17:00:33.423Z,89.25
2022-12-05T17:03:33.867Z,90.11
2022-12-05T17:06:19.529Z,88.76
2022-12-05T17:09:03.388Z,89.21
2022-12-05T17:11:49.059Z,89.05
2022-12-05T17:14:32.963Z,89.53
2022-12-05T17:17:19.178Z,89.14
2022-12-05T17:20:03.208Z,89.89
2022-12-05T17:22:47.774Z,90.24
2022-12-05T17:25:36.454Z,89.83
2022-12-05T17:28:20.750Z,89.83
2022-12-05T17:31:04.550Z,90.02
2022-12-05T17:33:51.589Z,90.48
2022-12-05T17:36:35.334Z,89.32
2022-12-05T17:39:22.427Z,89.50
2022-12-05T17:42:10.367Z,89.80
2022-12-05T17:44:54.356Z,89.48
2022-12-05T17:47:38.290Z,89.88
2022-12-05T17:50:24.858Z,89.99
2022-12-05T17:53:14.561Z,89.81
2022-12-05T17:55:58.448Z,88.20
2022-12-05T17:58:43.346Z,88.67
2022-12-05T18:01:27.609Z,89.08
2022-12-05T18:04:11.657Z,87.97
2022-12-05T18:06:57.112Z,85.61
2022-12-05T18:09:40.886Z,87.19
2022-12-05T18:12:26.441Z,85.04
2022-12-05T18:15:11.061Z,84.85
2022-12-05T18:17:55.626Z,85.06
2022-12-05T18:20:39.457Z,84.10
2022-12-05T18:23:24.813Z,84.68
2022-12-05T18:26:10.527Z,83.53
2022-12-05T18:28:56.854Z,82.61
2022-12-05T18:31:42.845Z,82.73
2022-12-05T18:34:26.925Z,82.95
2022-12-05T18:37:11.578Z,83.98
2022-12-05T18:39:57.524Z,84.41
2022-12-05T18:42:41.353Z,85.60
2022-12-05T18:45:25.155Z,85.70
2022-12-05T18:48:23.769Z,87.02
2022-12-05T18:51:14.763Z,86.57
2022-12-05T18:53:59.097Z,85.81
2022-12-05T18:56:46.111Z,84.01
2022-12-05T18:59:30.862Z,83.70
2022-12-05T19:02:15.176Z,84.23
2022-12-05T19:04:59.201Z,83.61
2022-12-05T19:07:43.192Z,83.78
2022-12-05T19:10:27.105Z,83.03
2022-12-05T19:13:12.236Z,83.69
2022-12-05T19:16:02.458Z,83.58
2022-12-05T19:18:46.925Z,83.91
2022-12-05T19:21:32.555Z,85.44
2022-12-05T19:24:20.006Z,83.59
2022-12-05T19:27:04.062Z,84.07
2022-12-05T19:29:49.450Z,83.75
2022-12-05T19:32:36.923Z,82.52
2022-12-05T19:35:23.980Z,83.11
2022-12-05T19:38:07.888Z,84.25
2022-12-05T19:40:57.124Z,83.45
2022-12-05T19:43:43.152Z,82.98
2022-12-05T19:46:30.269Z,81.90
2022-12-05T19:49:15.911Z,82.39
2022-12-05T19:51:59.838Z,82.76
2022-12-05T19:54:43.690Z,82.83
2022-12-05T19:57:31.220Z,82.60
2022-12-05T20:00:19.063Z,83.11
2022-12-05T20:03:07.790Z,81.87
2022-12-05T20:05:59.425Z,81.62
2022-12-05T20:08:43.522Z,81.67
2022-12-05T20:11:29.292Z,80.55
2022-12-05T20:14:14.586Z,81.21
2022-12-05T20:16:58.517Z,81.33
2022-12-05T20:19:43.876Z,81.24
2022-12-05T20:22:31.030Z,82.03
2022-12-05T20:25:14.863Z,80.60
2022-12-05T20:27:58.716Z,80.70
2022-12-05T20:30:42.759Z,80.51
2022-12-05T20:33:26.523Z,80.32
2022-12-05T20:36:13.932Z,79.86
2022-12-05T20:38:59.363Z,80.79
2022-12-05T20:41:43.166Z,83.37
2022-12-05T20:44:26.880Z,83.29
2022-12-05T20:47:10.671Z,83.26
2022-12-05T20:49:54.605Z,83.56
2022-12-05T20:52:45.162Z,83.15
2022-12-05T20:55:31.217Z,83.85
2022-12-05T20:58:15.098Z,86.13
2022-12-05T21:01:00.135Z,84.89
2022-12-05T21:03:45.840Z,84.74
2022-12-05T21:06:31.869Z,83.22
2022-12-05T21:09:26.469Z,82.84
2022-12-05T21:12:10.752Z,81.87
2022-12-05T21:14:54.831Z,81.98
2022-12-05T21:17:38.954Z,81.68
2022-12-05T21:20:23.201Z,82.14
2022-12-05T21:23:07.129Z,80.62
2022-12-05T21:25:52.343Z,81.26
2022-12-05T21:28:36.659Z,79.88
2022-12-05T21:31:22.866Z,81.81
2022-12-05T21:34:08.445Z,81.00
2022-12-05T21:36:52.542Z,80.65
2022-12-05T21:39:36.765Z,80.73
2022-12-05T21:42:21.948Z,80.43
2022-12-05T21:45:06.311Z,82.94
2022-12-05T21:47:52.483Z,81.96
2022-12-05T21:50:38.829Z,80.61
2022-12-05T21:53:22.938Z,80.88
2022-12-05T21:56:10.956Z,80.60
2022-12-05T21:58:56.344Z,81.26
2022-12-05T22:01:40.234Z,80.89
2022-12-05T22:04:24.442Z,81.63
2022-12-05T22:07:08.563Z,81.10
2022-12-05T22:09:52.761Z,81.80
2022-12-05T22:12:36.790Z,81.09
2022-12-05T22:15:22.415Z,80.38
2022-12-05T22:18:06.802Z,81.46
2022-12-05T22:20:57.046Z,81.56
2022-12-05T22:23:41.149Z,81.06
2022-12-05T22:26:27.392Z,80.18
2022-12-05T22:29:11.556Z,80.39
2022-12-05T22:31:58.873Z,80.48
2022-12-05T22:34:42.873Z,80.07
2022-12-05T22:37:27.130Z,79.62
2022-12-05T22:40:12.506Z,79.64
2022-12-05T22:42:56.680Z,81.15
2022-12-05T22:45:40.659Z,80.09
2022-12-05T22:48:27.534Z,79.81
2022-12-05T22:51:11.701Z,79.51
2022-12-05T22:53:55.563Z,79.64
2022-12-05T22:56:39.616Z,79.50
2022-12-05T22:59:23.548Z,79.60
2022-12-05T23:02:07.343Z,78.99
2022-12-05T23:04:52.518Z,79.47
2022-12-05T23:07:36.283Z,81.07
2022-12-05T23:10:20.220Z,81.99
2022-12-05T23:13:03.909Z,80.88
2022-12-05T23:15:47.665Z,81.76
2022-12-05T23:18:31.570Z,82.38
2022-12-05T23:21:20.102Z,85.36
2022-12-05T23:24:06.703Z,85.15
2022-12-05T23:26:50.482Z,86.78
2022-12-05T23:29:34.296Z,87.31
2022-12-05T23:32:18.056Z,87.43
2022-12-05T23:35:01.928Z,87.36
2022-12-05T23:37:48.777Z,88.08
2022-12-05T23:40:32.531Z,88.07
2022-12-05T23:43:16.264Z,88.46
2022-12-05T23:46:00.751Z,89.01
2022-12-05T23:48:44.849Z,89.00
2022-12-05T23:51:30.113Z,89.24
2022-12-05T23:54:15.200Z,89.93
2022-12-05T23:56:58.958Z,90.29
2022-12-05T23:59:42.808Z,90.13
